Time;durP1;ratioP1;P1;durP2;ratioP2;P2;SDS_P1;SDS_P2;PMS_P1;PMS_P2;Temp;Humidity;BMP_temperature;BMP_pressure;BME280_temperature;BME280_humidity;BME280_pressure;Samples;Min_cycle;Max_cycle;Signal;HPM_P1;HPM_P2
2022/04/16 00:01:24;;;;;;;11.23;8.85;;;;;;;5.97;74.36;98991.66;4829612;29;20045;-83
2022/04/16 00:03:50;;;;;;;9.98;8.43;;;;;;;5.88;74.46;98994.91;4844509;29;20080;-85
2022/04/16 00:06:16;;;;;;;10.82;8.27;;;;;;;5.94;74.31;99010.44;4860909;29;20098;-85
2022/04/16 00:08:42;;;;;;;11.07;8.25;;;;;;;5.93;74.35;99006.06;4861013;29;20055;-84
2022/04/16 00:11:08;;;;;;;9.02;7.93;;;;;;;6.04;74.24;98998.25;4844433;29;20064;-84
2022/04/16 00:13:34;;;;;;;9.80;8.80;;;;;;;6.01;74.21;99016.19;4844624;29;20042;-85
2022/04/16 00:16:00;;;;;;;9.35;8.35;;;;;;;6.03;74.15;99011.63;4844532;29;20093;-84
2022/04/16 00:18:26;;;;;;;11.65;8.52;;;;;;;5.99;73.85;99010.13;4844381;29;20521;-84
2022/04/16 00:20:52;;;;;;;11.82;7.22;;;;;;;5.93;73.86;99015.84;4861137;29;20449;-85
2022/04/16 00:23:22;;;;;;;9.90;8.32;;;;;;;5.98;73.74;99006.63;4860755;29;20094;-86
2022/04/16 00:25:49;;;;;;;11.77;7.07;;;;;;;5.99;73.53;99015.44;4814212;29;20049;-83
2022/04/16 00:28:16;;;;;;;7.57;6.80;;;;;;;5.88;73.51;99013.47;4829479;29;20053;-86
2022/04/16 00:30:42;;;;;;;10.68;7.72;;;;;;;5.84;74.01;99009.31;4844327;29;20045;-85
2022/04/16 00:33:09;;;;;;;11.70;7.68;;;;;;;5.83;74.17;99020.88;4859866;29;20105;-84
2022/04/16 00:35:35;;;;;;;8.07;7.15;;;;;;;5.80;74.24;99011.31;4860789;29;20080;-83
2022/04/16 00:38:01;;;;;;;10.43;7.50;;;;;;;5.91;73.81;99013.28;4859193;29;20112;-83
2022/04/16 00:40:27;;;;;;;9.45;8.30;;;;;;;5.96;73.95;99019.13;4860799;29;20041;-89
2022/04/16 00:42:53;;;;;;;9.20;7.80;;;;;;;5.94;73.71;99021.06;4844194;29;20056;-87
2022/04/16 00:45:19;;;;;;;11.85;8.07;;;;;;;5.87;73.72;99022.38;4844113;29;20599;-87
2022/04/16 00:47:45;;;;;;;12.05;7.85;;;;;;;5.79;73.85;99008.75;4860445;29;20132;-86
2022/04/16 00:50:12;;;;;;;9.73;7.75;;;;;;;5.77;74.07;99021.28;4859480;29;20178;-85
2022/04/16 00:52:39;;;;;;;8.07;6.53;;;;;;;5.52;74.50;99017.56;4844014;29;20041;-84
2022/04/16 00:55:08;;;;;;;11.05;7.78;;;;;;;5.45;74.72;99021.53;4844396;29;20050;-84
2022/04/16 00:57:39;;;;;;;10.25;7.38;;;;;;;5.49;74.81;99030.16;4843906;29;20156;-83
2022/04/16 01:00:07;;;;;;;8.82;6.93;;;;;;;5.38;75.01;99036.16;4843878;29;20231;-83
2022/04/16 01:02:37;;;;;;;9.90;6.57;;;;;;;5.24;75.15;99050.28;4813782;29;20069;-84
2022/04/16 01:05:05;;;;;;;8.52;6.55;;;;;;;5.23;74.85;99053.03;4860460;29;20065;-83
2022/04/16 01:07:31;;;;;;;7.40;5.18;;;;;;;5.04;74.69;99055.94;4844080;29;20413;-84
2022/04/16 01:09:58;;;;;;;3.40;3.10;;;;;;;4.91;74.05;99069.13;4828841;29;20048;-83
2022/04/16 01:12:24;;;;;;;7.53;4.32;;;;;;;4.67;73.75;99050.28;4864251;29;20057;-83
2022/04/16 01:14:50;;;;;;;5.25;4.47;;;;;;;4.66;73.93;99085.63;4864310;29;20051;-82
2022/04/16 01:17:17;;;;;;;3.25;2.95;;;;;;;4.44;74.01;99099.31;4847796;29;20056;-85
2022/04/16 01:19:44;;;;;;;4.00;3.60;;;;;;;4.36;74.51;99072.41;4817918;29;20041;-84
2022/04/16 01:22:14;;;;;;;4.45;3.67;;;;;;;4.28;74.71;99087.91;4848015;29;20053;-84
2022/04/16 01:24:43;;;;;;;4.35;3.95;;;;;;;4.22;74.81;99088.28;4847946;29;20045;-84
2022/04/16 01:27:10;;;;;;;5.53;4.10;;;;;;;4.18;75.03;99100.81;4817185;29;20045;-85
2022/04/16 01:29:37;;;;;;;5.20;4.30;;;;;;;4.07;75.11;99093.50;4863441;29;20049;-85
2022/04/16 01:32:03;;;;;;;7.60;4.10;;;;;;;4.12;75.32;99098.53;4831575;29;20041;-85
2022/04/16 01:34:29;;;;;;;4.28;3.63;;;;;;;4.03;75.36;99102.56;4846983;29;20042;-84
2022/04/16 01:36:58;;;;;;;4.72;4.28;;;;;;;4.04;75.49;99098.97;4847276;29;20585;-85
2022/04/16 01:39:23;;;;;;;3.90;3.45;;;;;;;3.93;75.74;99109.28;4847133;29;20105;-85
2022/04/16 01:41:50;;;;;;;4.13;3.72;;;;;;;3.98;75.77;99094.00;4863257;29;20128;-84
2022/04/16 01:44:15;;;;;;;4.50;4.10;;;;;;;4.04;75.28;99109.53;4831438;29;20049;-84
2022/04/16 01:46:41;;;;;;;4.05;3.65;;;;;;;3.98;75.42;99104.59;4863261;29;20042;-84
2022/04/16 01:49:09;;;;;;;4.38;3.97;;;;;;;3.94;75.37;99113.63;4863492;29;20406;-81
2022/04/16 01:51:35;;;;;;;4.10;3.40;;;;;;;3.96;75.37;99117.06;4863824;29;20105;-83
2022/04/16 01:54:01;;;;;;;4.70;4.15;;;;;;;3.97;75.51;99113.47;4863675;29;20140;-80
2022/04/16 01:56:27;;;;;;;4.05;3.60;;;;;;;4.05;75.13;99119.16;4863815;29;20064;-85
2022/04/16 01:58:53;;;;;;;4.70;4.28;;;;;;;4.04;75.34;99119.28;4826503;29;20054;-85
2022/04/16 02:01:19;;;;;;;4.43;4.00;;;;;;;4.09;75.38;99123.34;4878364;29;20082;-83
2022/04/16 02:03:45;;;;;;;4.80;4.13;;;;;;;3.99;75.25;99124.84;4877459;29;20050;-82
2022/04/16 02:06:11;;;;;;;5.55;3.33;;;;;;;4.18;75.38;99131.72;4854270;29;20149;-84
2022/04/16 02:08:37;;;;;;;3.67;3.38;;;;;;;4.19;74.61;99136.06;4850981;29;20076;-84
2022/04/16 02:11:03;;;;;;;5.03;4.63;;;;;;;4.09;74.53;99141.00;4849211;29;20041;-84
2022/04/16 02:13:30;;;;;;;4.50;4.10;;;;;;;4.08;74.54;99153.38;4847568;29;20045;-86
2022/04/16 02:15:56;;;;;;;4.38;3.97;;;;;;;4.01;75.02;99144.09;4849366;29;20053;-86
2022/04/16 02:18:23;;;;;;;4.18;3.83;;;;;;;4.07;75.16;99146.41;4849530;29;20048;-86
2022/04/16 02:20:49;;;;;;;8.55;4.55;;;;;;;4.16;74.96;99146.81;4852440;29;20078;-86
2022/04/16 02:23:16;;;;;;;4.85;4.35;;;;;;;4.39;75.06;99162.22;4816508;29;20110;-82
2022/04/16 02:25:43;;;;;;;4.53;4.13;;;;;;;4.31;74.33;99164.47;4831046;29;20105;-85
2022/04/16 02:28:10;;;;;;;4.70;4.18;;;;;;;4.35;74.17;99171.28;4861451;29;20093;-86
2022/04/16 02:30:37;;;;;;;3.30;3.03;;;;;;;4.33;73.65;99175.81;4848461;29;20049;-86
2022/04/16 02:33:06;;;;;;;4.18;3.78;;;;;;;4.20;73.77;99178.28;4848387;29;20076;-83
2022/04/16 02:35:32;;;;;;;3.50;3.20;;;;;;;4.17;73.77;99178.47;4819524;29;20049;-83
2022/04/16 02:37:58;;;;;;;4.25;3.85;;;;;;;4.27;73.56;99189.38;4864528;29;20089;-84
2022/04/16 02:40:24;;;;;;;4.13;3.83;;;;;;;4.24;73.36;99184.25;4863741;29;20056;-86
2022/04/16 02:42:50;;;;;;;4.05;3.60;;;;;;;4.30;73.58;99186.56;4846300;29;20592;-84
2022/04/16 02:48:01;;;;;;;4.05;3.75;;;;;;;4.53;73.10;99204.63;4863713;29;20052;-82
2022/04/16 02:50:28;;;;;;;3.95;3.65;;;;;;;4.70;72.67;99208.09;4847445;29;20049;-83
2022/04/16 02:52:55;;;;;;;3.90;3.60;;;;;;;4.60;72.61;99198.03;4862662;29;20109;-81
2022/04/16 02:55:22;;;;;;;4.32;3.90;;;;;;;4.70;72.44;99206.31;4862183;29;20562;-83
2022/04/16 02:57:51;;;;;;;4.32;3.90;;;;;;;4.74;72.38;99220.19;4814975;29;20148;-83
2022/04/16 03:00:19;;;;;;;4.20;3.80;;;;;;;4.80;72.10;99219.84;4848524;29;20076;-82
2022/04/16 03:02:47;;;;;;;3.10;2.80;;;;;;;4.77;72.16;99223.53;4863869;29;20056;-83
2022/04/16 03:05:13;;;;;;;3.75;3.45;;;;;;;4.61;72.42;99220.91;4860895;29;20053;-83
2022/04/16 03:07:40;;;;;;;4.85;3.45;;;;;;;4.44;73.03;99218.41;4845688;29;20045;-82
2022/04/16 03:10:08;;;;;;;6.95;3.50;;;;;;;4.34;73.67;99223.34;4845850;29;20045;-84
2022/04/16 03:12:45;;;;;;;4.60;3.75;;;;;;;4.23;74.23;99232.84;4830562;29;20050;-83
2022/04/16 03:17:56;;;;;;;4.90;4.40;;;;;;;4.25;74.46;99238.88;4861726;29;20050;-83
2022/04/16 03:20:22;;;;;;;5.22;4.72;;;;;;;4.23;74.86;99248.72;4829902;29;20045;-85
2022/04/16 03:22:48;;;;;;;5.15;4.65;;;;;;;4.32;74.63;99248.19;4861810;29;20082;-84
2022/04/16 03:25:14;;;;;;;6.13;5.22;;;;;;;4.46;74.32;99242.97;4845090;29;20053;-84
2022/04/16 03:27:40;;;;;;;5.90;5.15;;;;;;;4.41;74.18;99249.47;4860771;29;20045;-81
2022/04/16 03:30:07;;;;;;;4.50;4.07;;;;;;;4.29;74.61;99235.16;4863311;29;20060;-83
2022/04/16 03:32:38;;;;;;;5.22;4.72;;;;;;;4.27;74.85;99247.59;4816156;29;20045;-87
2022/04/16 03:35:05;;;;;;;5.90;4.57;;;;;;;4.59;77.74;99244.00;4844828;29;20038;-79
2022/04/16 03:37:35;;;;;;;4.78;4.38;;;;;;;5.74;78.34;99249.56;4830120;29;20140;-81
2022/04/16 03:40:02;;;;;;;5.72;5.13;;;;;;;5.66;72.92;99249.19;4817340;29;20135;-89
2022/04/16 03:42:28;;;;;;;4.88;4.38;;;;;;;5.22;71.19;99250.06;4844963;29;20144;-87
2022/04/16 03:44:56;;;;;;;4.90;4.35;;;;;;;5.01;71.69;99258.34;4845788;29;20132;-88
2022/04/16 03:47:21;;;;;;;4.43;4.05;;;;;;;4.71;72.69;99249.53;4844884;29;20045;-82
2022/04/16 03:49:47;;;;;;;4.93;4.30;;;;;;;4.79;72.73;99255.25;4829969;29;20045;-82
2022/04/16 03:52:13;;;;;;;5.50;5.00;;;;;;;4.78;72.86;99266.78;4845805;29;20050;-87
2022/04/16 04:00:09;;;;;;;5.05;4.45;;;;;;;4.62;73.71;99288.81;4846310;29;20057;-89
2022/04/16 04:02:39;;;;;;;5.00;4.35;;;;;;;4.65;73.18;99286.94;4860405;29;20053;-92
2022/04/16 04:05:06;;;;;;;4.22;3.83;;;;;;;4.99;76.71;99283.22;4855212;29;20061;-81
2022/04/16 04:07:33;;;;;;;5.60;5.10;;;;;;;5.13;73.45;99287.72;4836153;29;20037;-88
2022/04/16 04:09:59;;;;;;;5.28;4.78;;;;;;;5.08;72.39;99288.00;4854127;29;20053;-86
2022/04/16 04:12:25;;;;;;;5.32;4.82;;;;;;;4.98;72.36;99297.41;4863969;29;20030;-94
2022/04/16 04:14:52;;;;;;;4.93;4.43;;;;;;;5.13;72.31;99290.34;4873338;29;20046;-92
2022/04/16 04:17:17;;;;;;;4.70;4.28;;;;;;;5.04;71.93;99297.03;4871855;29;20056;-90
2022/04/16 04:19:45;;;;;;;7.40;5.18;;;;;;;5.00;72.16;99306.97;4870853;29;20045;-93
2022/04/16 04:22:14;;;;;;;5.78;4.57;;;;;;;4.67;73.27;99308.91;4858126;29;20125;-91
2022/04/16 04:30:34;;;;;;;5.05;4.60;;;;;;;4.78;72.73;99301.19;4907982;23;20065;-92
2022/04/16 04:33:01;;;;;;;6.13;4.15;;;;;;;4.82;72.36;99311.53;4868898;29;20104;-92
2022/04/16 04:35:28;;;;;;;4.30;3.90;;;;;;;4.93;72.16;99297.69;4883918;29;20073;-91
2022/04/16 04:37:54;;;;;;;4.95;4.50;;;;;;;5.04;71.97;99318.22;5227259;23;20060;-91
2022/04/16 04:40:21;;;;;;;5.53;4.10;;;;;;;4.92;72.14;99319.78;4873748;29;20036;-87
2022/04/16 04:42:46;;;;;;;3.88;3.10;;;;;;;4.98;71.69;99331.84;4860781;29;20045;-89
2022/04/16 04:45:15;;;;;;;3.55;3.33;;;;;;;4.93;71.19;99326.81;4864676;29;20358;-87
2022/04/16 04:47:41;;;;;;;3.60;3.30;;;;;;;4.91;71.69;99326.03;4851866;29;20037;-87
2022/04/16 04:50:08;;;;;;;3.83;3.53;;;;;;;5.14;71.57;99339.75;4866159;29;20060;-86
2022/04/16 04:52:36;;;;;;;3.28;3.08;;;;;;;5.09;71.15;99327.63;4855180;29;20061;-90
2022/04/16 04:55:05;;;;;;;3.80;3.38;;;;;;;4.84;71.60;99333.47;4858710;29;20056;-89
2022/04/16 04:57:31;;;;;;;3.95;3.55;;;;;;;4.95;71.53;99351.41;4868315;29;20080;-89
2022/04/16 04:59:57;;;;;;;4.28;3.40;;;;;;;4.98;71.54;99351.22;4852266;29;20132;-89
2022/04/16 05:02:23;;;;;;;3.78;3.47;;;;;;;4.94;71.55;99349.69;4883544;29;20049;-87
2022/04/16 05:04:49;;;;;;;4.55;3.75;;;;;;;4.91;71.41;99359.63;4867216;29;20033;-89
2022/04/16 05:07:15;;;;;;;4.72;4.20;;;;;;;5.02;71.74;99366.00;4868573;29;20396;-88
2022/04/16 05:09:40;;;;;;;3.95;3.40;;;;;;;5.04;71.51;99366.78;4866919;29;20048;-88
2022/04/16 05:12:07;;;;;;;3.92;3.63;;;;;;;5.16;71.11;99351.13;4852445;29;20101;-90
2022/04/16 05:14:33;;;;;;;3.60;3.25;;;;;;;5.26;70.90;99370.84;4851623;29;20135;-89
2022/04/16 05:16:58;;;;;;;3.63;3.30;;;;;;;5.28;70.41;99374.25;4883235;29;20128;-90
2022/04/16 05:19:24;;;;;;;3.10;2.90;;;;;;;5.26;70.37;99378.78;4883379;29;20041;-87
2022/04/16 05:21:50;;;;;;;3.70;2.72;;;;;;;5.25;69.95;99398.28;4857231;29;20040;-90
2022/04/16 05:24:16;;;;;;;2.80;2.42;;;;;;;5.03;69.97;99391.56;5028474;23;20101;-93
2022/04/16 05:26:42;;;;;;;2.65;2.45;;;;;;;4.78;70.48;99375.34;4888826;29;20073;-93
2022/04/16 05:29:08;;;;;;;2.25;2.15;;;;;;;4.74;70.79;99393.19;4885319;29;20065;-93
2022/04/16 05:31:34;;;;;;;3.00;2.80;;;;;;;5.03;70.46;99390.69;4897604;29;20069;-93
2022/04/16 05:34:19;;;;;;;2.45;2.35;;;;;;;4.97;70.67;99391.91;4864963;29;20052;-93
2022/04/16 05:36:49;;;;;;;4.75;3.25;;;;;;;4.92;70.42;99377.22;4865675;29;20064;-93
2022/04/16 05:39:18;;;;;;;4.63;3.30;;;;;;;5.21;70.00;99383.50;4885869;29;20049;-91
2022/04/16 05:41:44;;;;;;;3.45;3.15;;;;;;;5.11;70.13;99394.66;4869479;29;20045;-91
2022/04/16 05:44:10;;;;;;;2.95;2.75;;;;;;;5.28;69.89;99406.91;4870208;29;20049;-89
2022/04/16 05:46:37;;;;;;;2.63;2.42;;;;;;;5.54;69.00;99408.06;4866185;29;20048;-87
2022/04/16 05:49:02;;;;;;;3.45;3.15;;;;;;;5.72;69.23;99405.28;4876683;29;20057;-89
2022/04/16 05:51:29;;;;;;;2.88;2.67;;;;;;;5.54;68.23;99413.38;4873266;29;20064;-94
2022/04/16 05:53:55;;;;;;;3.10;2.80;;;;;;;5.45;68.92;99416.53;4851766;29;20063;-94
2022/04/16 05:56:22;;;;;;;3.50;3.30;;;;;;;5.68;68.91;99420.53;4865325;29;20525;-91
2022/04/16 05:58:48;;;;;;;3.80;3.50;;;;;;;5.70;68.60;99428.38;4851400;29;20070;-92
2022/04/16 06:01:15;;;;;;;3.35;3.10;;;;;;;5.75;68.22;99426.31;4839240;29;20045;-94
2022/04/16 06:03:41;;;;;;;3.45;3.15;;;;;;;5.65;67.86;99430.47;4844338;29;20045;-88
2022/04/16 06:06:08;;;;;;;3.50;3.20;;;;;;;5.49;67.99;99434.00;4868441;29;20108;-88
2022/04/16 06:08:35;;;;;;;3.38;3.08;;;;;;;5.56;68.09;99434.47;4857032;29;20056;-91
2022/04/16 06:11:01;;;;;;;3.78;3.40;;;;;;;5.77;67.85;99440.34;4850402;29;20045;-88
2022/04/16 06:13:30;;;;;;;3.15;2.95;;;;;;;5.69;67.31;99447.91;4851349;29;20049;-84
2022/04/16 06:15:56;;;;;;;3.88;3.58;;;;;;;5.75;67.60;99448.38;4866191;29;20052;-89
2022/04/16 06:18:23;;;;;;;4.28;3.10;;;;;;;5.45;68.26;99450.16;4835405;29;20049;-92
2022/04/16 06:20:48;;;;;;;3.63;3.33;;;;;;;5.56;68.59;99453.88;4867444;29;20097;-85
2022/04/16 06:23:14;;;;;;;3.75;3.45;;;;;;;5.65;68.13;99447.22;4866658;29;20076;-84
2022/04/16 06:25:40;;;;;;;3.70;3.40;;;;;;;5.53;67.79;99454.09;4871903;29;20045;-92
2022/04/16 06:28:06;;;;;;;4.18;3.85;;;;;;;5.42;68.65;99461.81;4852838;29;20048;-81
2022/04/16 06:30:32;;;;;;;8.57;3.70;;;;;;;5.50;68.77;99480.78;4867264;29;20060;-84
2022/04/16 06:32:58;;;;;;;3.80;3.45;;;;;;;5.64;68.17;99466.69;4854775;29;20037;-88
2022/04/16 06:35:24;;;;;;;3.30;3.10;;;;;;;5.52;68.16;99478.88;4849874;29;20056;-90
2022/04/16 06:37:50;;;;;;;3.58;3.25;;;;;;;5.48;67.92;99477.34;4835396;29;20048;-87
2022/04/16 06:40:16;;;;;;;3.13;2.75;;;;;;;5.24;68.22;99473.44;4850948;29;20045;-87
2022/04/16 06:42:42;;;;;;;2.95;2.75;;;;;;;5.41;68.21;99473.31;4866541;29;20416;-88
2022/04/16 06:45:10;;;;;;;7.82;3.40;;;;;;;5.49;68.00;99472.88;4870536;29;20397;-88
2022/04/16 06:47:37;;;;;;;7.22;3.08;;;;;;;6.48;73.82;99490.94;4848717;29;20045;-78
2022/04/16 06:50:04;;;;;;;5.57;3.05;;;;;;;6.96;67.31;99469.41;4880432;29;20524;-89
2022/04/16 06:52:30;;;;;;;6.78;2.85;;;;;;;6.91;64.27;99484.78;4849860;29;20509;-86
2022/04/16 06:54:57;;;;;;;2.70;2.50;;;;;;;6.53;63.63;99472.06;4847927;29;20060;-85
2022/04/16 06:57:24;;;;;;;6.07;2.00;;;;;;;6.29;62.70;99477.09;4865114;29;20053;-89
2022/04/16 06:59:50;;;;;;;4.88;2.38;;;;;;;6.22;63.53;99478.38;4881238;29;20053;-87
2022/04/16 07:02:16;;;;;;;3.72;2.47;;;;;;;6.49;63.42;99492.66;4850264;29;20049;-87
2022/04/16 07:04:42;;;;;;;3.08;2.50;;;;;;;6.43;63.53;99493.03;4864908;29;20048;-88
2022/04/16 07:07:10;;;;;;;2.42;2.30;;;;;;;6.60;63.21;99499.13;4880070;29;20040;-82
2022/04/16 07:09:40;;;;;;;2.75;2.03;;;;;;;6.50;61.93;99499.66;4877131;29;20101;-84
2022/04/16 07:12:10;;;;;;;2.95;2.10;;;;;;;6.33;63.20;99498.03;4861902;29;20109;-87
2022/04/16 07:14:40;;;;;;;2.40;2.20;;;;;;;6.61;63.09;99496.34;4863331;29;20462;-87
2022/04/16 07:17:06;;;;;;;2.45;1.80;;;;;;;6.98;62.97;99500.25;4833645;29;20053;-80
2022/04/16 07:19:33;;;;;;;2.33;2.13;;;;;;;7.00;61.52;99503.66;4848850;29;20136;-86
2022/04/16 07:22:00;;;;;;;4.32;1.90;;;;;;;6.99;61.28;99501.94;4865960;29;20616;-80
2022/04/16 07:24:26;;;;;;;1.80;1.70;;;;;;;7.21;60.94;99505.91;4867079;29;20104;-90
2022/04/16 07:26:54;;;;;;;1.83;1.73;;;;;;;7.28;59.97;99509.88;4842406;29;20457;-90
2022/04/16 07:29:29;;;;;;;1.90;1.80;;;;;;;7.05;60.21;99511.34;4864994;29;20049;-84
2022/04/16 07:31:55;;;;;;;1.90;1.80;;;;;;;7.32;60.57;99524.69;4880830;29;20045;-82
2022/04/16 07:34:21;;;;;;;1.80;1.70;;;;;;;7.42;60.06;99515.19;4880489;29;20068;-89
2022/04/16 07:36:48;;;;;;;15.48;3.80;;;;;;;7.76;61.56;99523.63;4849004;29;20120;-88
2022/04/16 07:39:14;;;;;;;1.90;1.80;;;;;;;7.82;59.46;99519.69;4847527;29;20048;-84
2022/04/16 07:41:41;;;;;;;1.73;1.63;;;;;;;7.72;58.90;99527.44;4855789;29;20045;-90
2022/04/16 07:44:07;;;;;;;1.90;1.80;;;;;;;7.80;60.25;99535.78;4851155;29;20052;-87
2022/04/16 07:46:34;;;;;;;1.55;1.45;;;;;;;7.86;59.08;99532.72;4868156;29;20386;-89
2022/04/16 07:49:01;;;;;;;2.35;1.50;;;;;;;7.75;58.23;99537.91;4883920;29;20060;-86
2022/04/16 07:51:27;;;;;;;1.63;1.52;;;;;;;7.78;58.39;99540.34;4851916;29;20055;-86
2022/04/16 07:53:55;;;;;;;3.17;1.70;;;;;;;7.66;58.06;99542.00;4851031;29;20108;-87
2022/04/16 07:56:22;;;;;;;2.35;2.15;;;;;;;7.24;59.21;99550.91;4886763;29;20105;-84
2022/04/16 07:58:49;;;;;;;5.15;2.53;;;;;;;6.88;60.13;99551.38;4848563;29;20045;-83
2022/04/16 08:01:15;;;;;;;2.22;1.98;;;;;;;6.81;60.31;99550.94;4864502;29;20055;-83
2022/04/16 08:03:41;;;;;;;3.35;2.00;;;;;;;6.70;61.09;99553.41;4880730;29;20124;-84
2022/04/16 08:06:07;;;;;;;2.40;2.20;;;;;;;6.87;60.77;99550.53;4864656;29;20045;-85
2022/04/16 08:08:33;;;;;;;2.10;2.00;;;;;;;7.09;60.74;99560.69;4864526;29;20057;-84
2022/04/16 08:10:59;;;;;;;2.00;1.90;;;;;;;7.17;60.20;99558.41;4848451;29;20151;-84
2022/04/16 08:13:27;;;;;;;4.13;2.15;;;;;;;7.41;59.76;99566.69;4863394;29;20496;-84
2022/04/16 08:15:53;;;;;;;2.35;1.70;;;;;;;7.38;59.58;99566.88;4862993;29;20056;-84
2022/04/16 08:18:22;;;;;;;1.80;1.70;;;;;;;7.68;59.70;99558.72;4850928;29;20049;-85
2022/04/16 08:20:49;;;;;;;1.80;1.70;;;;;;;7.97;59.09;99564.81;4851457;29;20045;-85
2022/04/16 08:23:17;;;;;;;2.15;1.90;;;;;;;7.99;58.32;99573.53;4851996;29;20148;-85
2022/04/16 08:25:43;;;;;;;3.10;1.65;;;;;;;7.87;57.08;99582.34;4887189;29;20059;-85
2022/04/16 08:28:10;;;;;;;1.90;1.80;;;;;;;7.86;58.03;99583.28;4856406;29;20097;-85
2022/04/16 08:30:36;;;;;;;2.00;1.90;;;;;;;7.68;57.59;99581.81;4855315;29;20041;-89
2022/04/16 08:33:02;;;;;;;2.30;2.10;;;;;;;7.66;58.43;99591.69;4885101;29;20076;-85
2022/04/16 08:35:28;;;;;;;2.13;1.90;;;;;;;7.61;58.31;99583.16;4868555;29;20116;-85
2022/04/16 08:37:54;;;;;;;2.80;1.90;;;;;;;7.58;58.46;99591.34;4838996;29;20519;-86
2022/04/16 08:40:20;;;;;;;2.15;2.00;;;;;;;7.59;58.50;99585.91;4856496;29;20036;-86
2022/04/16 08:42:48;;;;;;;2.25;2.08;;;;;;;7.58;58.11;99596.66;4851874;29;20184;-86
2022/04/16 08:45:15;;;;;;;2.08;1.95;;;;;;;7.59;58.46;99607.19;4852294;29;20033;-85
2022/04/16 08:47:42;;;;;;;4.80;2.30;;;;;;;7.41;58.53;99609.22;4840807;29;20040;-87
2022/04/16 08:50:11;;;;;;;4.60;1.80;;;;;;;7.61;58.56;99609.78;4856258;29;20334;-86
2022/04/16 08:52:38;;;;;;;1.88;1.60;;;;;;;7.59;58.26;99616.97;4835689;29;20133;-87
2022/04/16 08:55:07;;;;;;;3.03;2.00;;;;;;;7.29;58.44;99616.13;4871418;29;20140;-86
2022/04/16 08:57:33;;;;;;;2.00;1.90;;;;;;;7.36;58.83;99611.31;4869856;29;20080;-86
2022/04/16 08:59:59;;;;;;;1.77;1.67;;;;;;;7.51;59.16;99620.97;4840732;29;20481;-87
2022/04/16 09:02:27;;;;;;;1.98;1.88;;;;;;;7.74;58.60;99626.66;4840610;29;20525;-85
2022/04/16 09:05:09;;;;;;;1.85;1.75;;;;;;;7.63;57.55;99623.81;4870422;29;20056;-85
2022/04/16 09:07:52;;;;;;;2.05;1.70;;;;;;;7.62;58.02;99632.75;4869792;29;20092;-84
2022/04/16 09:10:20;;;;;;;1.92;1.83;;;;;;;7.77;58.02;99631.78;4852301;29;20621;-85
2022/04/16 09:12:51;;;;;;;1.83;1.73;;;;;;;7.68;57.57;99625.25;4856172;29;20532;-87
2022/04/16 09:15:17;;;;;;;3.15;1.65;;;;;;;7.54;57.66;99631.44;4851974;29;20044;-86
2022/04/16 09:17:43;;;;;;;1.52;1.42;;;;;;;7.55;58.19;99649.09;4870809;29;20053;-86
2022/04/16 09:20:14;;;;;;;2.25;2.05;;;;;;;7.38;57.81;99644.00;4839449;29;20040;-84
2022/04/16 09:22:48;;;;;;;2.67;2.20;;;;;;;7.09;58.48;99647.56;4867321;29;20080;-85
2022/04/16 09:25:19;;;;;;;2.72;2.33;;;;;;;7.13;58.64;99646.44;4888479;29;20052;-86
2022/04/16 09:27:50;;;;;;;3.47;2.25;;;;;;;7.20;58.64;99650.44;4887678;29;20045;-86
2022/04/16 09:30:23;;;;;;;4.88;2.45;;;;;;;7.29;58.83;99641.88;4854913;29;20524;-84
2022/04/16 09:32:49;;;;;;;2.72;2.47;;;;;;;7.53;58.38;99653.66;4841514;29;20048;-85
2022/04/16 09:35:26;;;;;;;2.20;2.00;;;;;;;7.62;58.09;99654.03;4874713;29;20100;-86
2022/04/16 09:38:00;;;;;;;2.65;2.10;;;;;;;7.62;57.62;99654.03;4859533;29;20585;-87
2022/04/16 09:40:36;;;;;;;5.68;2.60;;;;;;;7.61;57.42;99652.34;4860794;29;20040;-86
2022/04/16 09:43:06;;;;;;;3.33;2.65;;;;;;;7.76;57.91;99656.69;4842548;29;20143;-87
2022/04/16 09:45:33;;;;;;;4.25;2.67;;;;;;;7.60;57.14;99670.09;4849303;29;20049;-86
2022/04/16 09:48:00;;;;;;;4.30;2.70;;;;;;;7.40;58.04;99676.66;4877551;29;20497;-87
2022/04/16 09:50:27;;;;;;;6.07;3.42;;;;;;;7.48;58.36;99661.06;4874359;29;20058;-86
2022/04/16 09:52:59;;;;;;;3.60;2.40;;;;;;;7.63;58.49;99666.38;4891302;29;20172;-87
2022/04/16 09:55:27;;;;;;;5.88;2.30;;;;;;;7.63;57.51;99663.72;4892123;29;20041;-86
2022/04/16 09:57:59;;;;;;;2.90;2.20;;;;;;;7.38;58.35;99672.38;4874959;29;20116;-86
2022/04/16 10:00:26;;;;;;;5.70;2.28;;;;;;;7.49;58.29;99676.09;4858524;29;20523;-86
2022/04/16 10:02:53;;;;;;;4.05;2.45;;;;;;;7.42;57.37;99674.75;4856977;29;20048;-84
2022/04/16 10:05:23;;;;;;;4.90;2.60;;;;;;;7.42;57.90;99673.91;4874422;29;20043;-85
2022/04/16 10:07:50;;;;;;;2.60;2.40;;;;;;;7.19;57.92;99673.50;4858176;29;20057;-84
2022/04/16 10:10:25;;;;;;;2.80;2.55;;;;;;;7.35;58.42;99673.41;4834694;29;20068;-84
2022/04/16 10:13:03;;;;;;;2.70;2.50;;;;;;;7.64;58.17;99684.06;4870174;29;20044;-85
2022/04/16 10:15:38;;;;;;;3.90;2.70;;;;;;;7.64;57.25;99678.75;4870027;29;20049;-84
2022/04/16 10:18:04;;;;;;;7.28;3.47;;;;;;;7.65;57.84;99677.78;4843934;29;20064;-84
2022/04/16 10:20:30;;;;;;;2.95;2.63;;;;;;;7.93;57.54;99679.56;4852981;29;20041;-86
2022/04/16 10:23:06;;;;;;;4.18;2.22;;;;;;;7.79;56.39;99672.47;4855375;29;20040;-86
2022/04/16 10:25:44;;;;;;;2.80;2.50;;;;;;;7.51;57.24;99697.25;4851725;29;20056;-84
2022/04/16 10:28:16;;;;;;;4.35;2.40;;;;;;;7.48;57.83;99694.78;4854363;29;20051;-83
2022/04/16 10:30:49;;;;;;;4.13;2.33;;;;;;;7.62;57.72;99693.94;4885598;29;20047;-84
2022/04/16 10:33:25;;;;;;;3.88;2.00;;;;;;;7.78;57.41;99692.03;4851531;29;20045;-86
2022/04/16 10:35:56;;;;;;;4.63;1.98;;;;;;;7.87;57.33;99698.59;4854412;29;20045;-88
2022/04/16 10:38:35;;;;;;;3.47;2.05;;;;;;;7.86;57.01;99688.88;4835245;29;20042;-82
2022/04/16 10:41:10;;;;;;;2.00;1.80;;;;;;;7.85;56.50;99697.81;4846493;29;20057;-83
2022/04/16 10:43:36;;;;;;;2.90;1.80;;;;;;;7.95;55.92;99694.47;4846249;29;20052;-85
2022/04/16 10:46:10;;;;;;;8.65;1.95;;;;;;;7.71;56.01;99696.00;4846258;29;20057;-91
2022/04/16 10:48:38;;;;;;;2.33;2.13;;;;;;;7.58;56.42;99689.75;4831327;29;20045;-84
2022/04/16 10:51:06;;;;;;;2.50;1.80;;;;;;;7.62;56.39;99704.59;4862902;29;20615;-89
2022/04/16 10:53:34;;;;;;;2.10;1.92;;;;;;;7.70;56.00;99700.50;4833206;29;20532;-81
2022/04/16 10:56:15;;;;;;;1.90;1.80;;;;;;;7.38;55.48;99689.19;4846059;29;20556;-86
2022/04/16 10:58:58;;;;;;;1.40;1.30;;;;;;;7.87;61.87;99710.09;4830902;29;20577;-78
2022/04/16 11:01:26;;;;;;;2.40;2.20;;;;;;;8.33;56.84;99699.16;4848442;29;20053;-86
2022/04/16 11:03:55;;;;;;;4.10;1.90;;;;;;;8.06;54.58;99695.63;4863963;29;20053;-87
2022/04/16 11:06:34;;;;;;;2.25;2.05;;;;;;;8.17;55.22;99703.78;4816931;29;20092;-85
2022/04/16 11:09:00;;;;;;;2.22;1.83;;;;;;;8.27;54.67;99704.88;4845397;29;20069;-82
2022/04/16 11:11:26;;;;;;;1.90;1.70;;;;;;;8.21;54.37;99706.13;4844690;29;20505;-84
2022/04/16 11:13:52;;;;;;;3.28;1.90;;;;;;;8.40;54.32;99710.31;4845180;29;20049;-83
2022/04/16 11:16:22;;;;;;;3.92;2.33;;;;;;;8.43;53.86;99718.09;4830319;29;20484;-84
2022/04/16 11:18:49;;;;;;;6.18;3.20;;;;;;;8.18;55.23;99716.13;4854701;29;20050;-85
2022/04/16 11:21:18;;;;;;;3.47;3.17;;;;;;;7.94;56.64;99729.19;4845067;29;20480;-85
2022/04/16 11:23:46;;;;;;;8.38;4.70;;;;;;;7.85;57.00;99725.28;4844800;29;20049;-83
2022/04/16 11:34:31;;;;;;;11.90;4.72;;;;;;;7.50;59.58;99724.81;4845946;29;20587;-84
2022/04/16 11:37:01;;;;;;;4.25;3.80;;;;;;;7.60;58.80;99727.75;4861572;29;20057;-82
2022/04/16 11:39:30;;;;;;;5.13;4.18;;;;;;;7.40;58.82;99735.16;4844820;29;20041;-84
2022/04/16 11:41:58;;;;;;;7.38;4.00;;;;;;;7.38;58.95;99733.56;4829561;29;20192;-83
2022/04/16 11:44:38;;;;;;;9.13;4.32;;;;;;;7.41;58.83;99736.88;4829241;29;20068;-83
2022/04/16 11:47:11;;;;;;;6.82;5.13;;;;;;;7.13;59.67;99747.47;4847151;29;20056;-83
2022/04/16 11:49:39;;;;;;;5.78;5.22;;;;;;;6.97;59.92;99752.81;4829373;29;20422;-82
2022/04/16 11:52:05;;;;;;;7.03;4.82;;;;;;;7.03;60.00;99745.34;4845021;29;20064;-83
2022/04/16 11:54:32;;;;;;;7.70;4.65;;;;;;;6.90;60.23;99752.31;4860726;29;20416;-83
2022/04/16 11:56:58;;;;;;;5.85;4.97;;;;;;;6.80;60.54;99751.13;4860959;29;20382;-83
2022/04/16 11:59:29;;;;;;;8.60;4.97;;;;;;;6.83;60.78;99750.97;4829274;29;20049;-83
2022/04/16 12:01:59;;;;;;;4.90;4.40;;;;;;;6.67;61.34;99776.72;4844466;29;20049;-84
2022/04/16 12:04:40;;;;;;;7.38;4.18;;;;;;;6.58;61.28;99770.09;4829467;29;20046;-84
2022/04/16 12:07:13;;;;;;;3.95;3.65;;;;;;;6.26;62.03;99783.41;4829329;29;20144;-83
2022/04/16 12:09:45;;;;;;;3.55;3.25;;;;;;;5.95;62.90;99773.63;4844184;29;20041;-83